sensor_id;sensor_type;location;lat;lon;timestamp;temperature;humidity
22738;DHT22;11536;50.860;4.286;2024-01-06T00:00:32;8.20;99.90
22738;DHT22;11536;50.860;4.286;2024-01-06T00:02:57;8.20;99.90
22738;DHT22;11536;50.860;4.286;2024-01-06T00:05:23;8.20;99.90
22738;DHT22;11536;50.860;4.286;2024-01-06T00:07:49;8.10;99.90
22738;DHT22;11536;50.860;4.286;2024-01-06T00:10:14;8.20;99.90
22738;DHT22;11536;50.860;4.286;2024-01-06T00:12:40;8.20;99.90
22738;DHT22;11536;50.860;4.286;2024-01-06T00:15:06;8.20;99.90
22738;DHT22;11536;50.860;4.286;2024-01-06T00:17:32;8.20;99.90
22738;DHT22;11536;50.860;4.286;2024-01-06T00:19:57;8.20;99.90
22738;DHT22;11536;50.860;4.286;2024-01-06T00:22:25;8.20;99.90
22738;DHT22;11536;50.860;4.286;2024-01-06T00:24:51;8.10;99.90
22738;DHT22;11536;50.860;4.286;2024-01-06T00:27:17;8.20;99.90
22738;DHT22;11536;50.860;4.286;2024-01-06T00:29:43;8.20;99.90
22738;DHT22;11536;50.860;4.286;2024-01-06T00:32:08;8.20;99.90
22738;DHT22;11536;50.860;4.286;2024-01-06T00:34:34;8.20;99.90
22738;DHT22;11536;50.860;4.286;2024-01-06T00:37:00;8.20;99.90
22738;DHT22;11536;50.860;4.286;2024-01-06T00:39:25;8.10;99.90
22738;DHT22;11536;50.860;4.286;2024-01-06T00:41:51;8.10;99.90
22738;DHT22;11536;50.860;4.286;2024-01-06T00:44:17;8.10;99.90
22738;DHT22;11536;50.860;4.286;2024-01-06T00:46:43;8.10;99.90
22738;DHT22;11536;50.860;4.286;2024-01-06T00:49:08;8.10;99.90
22738;DHT22;11536;50.860;4.286;2024-01-06T00:51:34;8.10;99.90
22738;DHT22;11536;50.860;4.286;2024-01-06T00:53:59;8.10;99.90
22738;DHT22;11536;50.860;4.286;2024-01-06T00:56:25;8.10;99.90
22738;DHT22;11536;50.860;4.286;2024-01-06T00:58:52;8.10;99.90
22738;DHT22;11536;50.860;4.286;2024-01-06T01:01:18;8.10;99.90
22738;DHT22;11536;50.860;4.286;2024-01-06T01:03:44;8.10;99.90
22738;DHT22;11536;50.860;4.286;2024-01-06T01:06:09;8.10;99.90
22738;DHT22;11536;50.860;4.286;2024-01-06T01:08:35;8.10;99.90
22738;DHT22;11536;50.860;4.286;2024-01-06T01:11:01;8.10;99.90
22738;DHT22;11536;50.860;4.286;2024-01-06T01:13:26;8.10;99.90
22738;DHT22;11536;50.860;4.286;2024-01-06T01:15:52;8.10;99.90
22738;DHT22;11536;50.860;4.286;2024-01-06T01:18:18;8.10;99.90
22738;DHT22;11536;50.860;4.286;2024-01-06T01:20:43;8.00;99.90
22738;DHT22;11536;50.860;4.286;2024-01-06T01:23:09;8.00;99.90
22738;DHT22;11536;50.860;4.286;2024-01-06T01:25:34;8.00;99.90
22738;DHT22;11536;50.860;4.286;2024-01-06T01:28:00;8.00;99.90
22738;DHT22;11536;50.860;4.286;2024-01-06T01:30:26;8.00;99.90
22738;DHT22;11536;50.860;4.286;2024-01-06T01:32:52;8.00;99.90
22738;DHT22;11536;50.860;4.286;2024-01-06T01:35:18;8.00;99.90
22738;DHT22;11536;50.860;4.286;2024-01-06T01:37:44;8.00;99.90
22738;DHT22;11536;50.860;4.286;2024-01-06T01:40:10;8.00;99.90
22738;DHT22;11536;50.860;4.286;2024-01-06T01:42:36;8.00;99.90
22738;DHT22;11536;50.860;4.286;2024-01-06T01:45:03;8.00;99.90
22738;DHT22;11536;50.860;4.286;2024-01-06T01:47:29;8.00;99.90
22738;DHT22;11536;50.860;4.286;2024-01-06T01:49:55;8.00;99.90
22738;DHT22;11536;50.860;4.286;2024-01-06T01:52:22;8.00;99.90
22738;DHT22;11536;50.860;4.286;2024-01-06T01:54:48;8.00;99.90
22738;DHT22;11536;50.860;4.286;2024-01-06T01:57:15;8.00;99.90
22738;DHT22;11536;50.860;4.286;2024-01-06T01:59:42;8.00;99.90
22738;DHT22;11536;50.860;4.286;2024-01-06T02:02:08;8.00;99.90
22738;DHT22;11536;50.860;4.286;2024-01-06T02:04:34;8.00;99.90
22738;DHT22;11536;50.860;4.286;2024-01-06T02:07:00;8.00;99.90
22738;DHT22;11536;50.860;4.286;2024-01-06T02:09:26;8.00;99.90
22738;DHT22;11536;50.860;4.286;2024-01-06T02:11:57;8.00;99.90
22738;DHT22;11536;50.860;4.286;2024-01-06T02:14:23;8.00;99.90
22738;DHT22;11536;50.860;4.286;2024-01-06T02:16:49;8.00;99.90
22738;DHT22;11536;50.860;4.286;2024-01-06T02:19:16;8.00;99.90
22738;DHT22;11536;50.860;4.286;2024-01-06T02:21:43;8.10;99.90
22738;DHT22;11536;50.860;4.286;2024-01-06T02:24:10;8.10;99.90
22738;DHT22;11536;50.860;4.286;2024-01-06T02:26:35;8.10;99.90
22738;DHT22;11536;50.860;4.286;2024-01-06T02:29:01;8.10;99.90
22738;DHT22;11536;50.860;4.286;2024-01-06T02:31:27;8.10;99.90
22738;DHT22;11536;50.860;4.286;2024-01-06T02:33:53;8.10;99.90
22738;DHT22;11536;50.860;4.286;2024-01-06T02:36:19;8.10;99.90
22738;DHT22;11536;50.860;4.286;2024-01-06T02:38:45;8.10;99.90
22738;DHT22;11536;50.860;4.286;2024-01-06T02:41:10;8.10;99.90
22738;DHT22;11536;50.860;4.286;2024-01-06T02:43:36;8.20;99.90
22738;DHT22;11536;50.860;4.286;2024-01-06T02:46:01;8.20;99.90
22738;DHT22;11536;50.860;4.286;2024-01-06T02:48:28;8.20;99.90
22738;DHT22;11536;50.860;4.286;2024-01-06T02:50:56;8.20;99.90
22738;DHT22;11536;50.860;4.286;2024-01-06T02:53:22;8.20;99.90
22738;DHT22;11536;50.860;4.286;2024-01-06T02:55:47;8.20;99.90
22738;DHT22;11536;50.860;4.286;2024-01-06T02:58:13;8.20;99.90
22738;DHT22;11536;50.860;4.286;2024-01-06T03:00:38;8.20;99.90
22738;DHT22;11536;50.860;4.286;2024-01-06T03:03:04;8.20;99.90
22738;DHT22;11536;50.860;4.286;2024-01-06T03:05:30;8.30;99.90
22738;DHT22;11536;50.860;4.286;2024-01-06T03:07:56;8.30;99.90
22738;DHT22;11536;50.860;4.286;2024-01-06T03:10:22;8.30;99.90
22738;DHT22;11536;50.860;4.286;2024-01-06T03:12:48;8.30;99.90
22738;DHT22;11536;50.860;4.286;2024-01-06T03:15:14;8.30;99.90
22738;DHT22;11536;50.860;4.286;2024-01-06T03:17:39;8.30;99.90
22738;DHT22;11536;50.860;4.286;2024-01-06T03:20:05;8.30;99.90
22738;DHT22;11536;50.860;4.286;2024-01-06T03:22:32;8.40;99.90
22738;DHT22;11536;50.860;4.286;2024-01-06T03:24:58;8.30;99.90
22738;DHT22;11536;50.860;4.286;2024-01-06T03:27:24;8.40;99.90
22738;DHT22;11536;50.860;4.286;2024-01-06T03:29:49;8.30;99.90
22738;DHT22;11536;50.860;4.286;2024-01-06T03:32:15;8.30;99.90
22738;DHT22;11536;50.860;4.286;2024-01-06T03:34:41;8.30;99.90
22738;DHT22;11536;50.860;4.286;2024-01-06T03:37:07;8.30;99.90
22738;DHT22;11536;50.860;4.286;2024-01-06T03:39:32;8.40;99.90
22738;DHT22;11536;50.860;4.286;2024-01-06T03:41:59;8.40;99.90
22738;DHT22;11536;50.860;4.286;2024-01-06T03:44:25;8.40;99.90
22738;DHT22;11536;50.860;4.286;2024-01-06T03:46:58;8.40;99.90
22738;DHT22;11536;50.860;4.286;2024-01-06T03:49:24;8.40;99.90
22738;DHT22;11536;50.860;4.286;2024-01-06T03:51:50;8.40;99.90
22738;DHT22;11536;50.860;4.286;2024-01-06T03:54:15;8.40;99.90
22738;DHT22;11536;50.860;4.286;2024-01-06T03:56:41;8.40;99.90
22738;DHT22;11536;50.860;4.286;2024-01-06T03:59:07;8.40;99.90
22738;DHT22;11536;50.860;4.286;2024-01-06T04:01:33;8.40;99.90
22738;DHT22;11536;50.860;4.286;2024-01-06T04:04:02;8.40;99.90
22738;DHT22;11536;50.860;4.286;2024-01-06T04:06:27;8.40;99.90
22738;DHT22;11536;50.860;4.286;2024-01-06T04:08:53;8.40;99.90
22738;DHT22;11536;50.860;4.286;2024-01-06T04:11:20;8.30;99.90
22738;DHT22;11536;50.860;4.286;2024-01-06T04:13:46;8.30;99.90
22738;DHT22;11536;50.860;4.286;2024-01-06T04:16:12;8.30;99.90
22738;DHT22;11536;50.860;4.286;2024-01-06T04:18:37;8.30;99.90
22738;DHT22;11536;50.860;4.286;2024-01-06T04:21:03;8.20;99.90
22738;DHT22;11536;50.860;4.286;2024-01-06T04:23:30;8.20;99.90
22738;DHT22;11536;50.860;4.286;2024-01-06T04:25:56;8.20;99.90
22738;DHT22;11536;50.860;4.286;2024-01-06T04:28:21;8.20;99.90
22738;DHT22;11536;50.860;4.286;2024-01-06T04:30:47;8.20;99.90
22738;DHT22;11536;50.860;4.286;2024-01-06T04:33:13;8.20;99.90
22738;DHT22;11536;50.860;4.286;2024-01-06T04:35:39;8.20;99.90
22738;DHT22;11536;50.860;4.286;2024-01-06T04:38:04;8.20;99.90
22738;DHT22;11536;50.860;4.286;2024-01-06T04:40:30;8.20;99.90
22738;DHT22;11536;50.860;4.286;2024-01-06T04:42:55;8.20;99.90
22738;DHT22;11536;50.860;4.286;2024-01-06T04:45:21;8.30;99.90
22738;DHT22;11536;50.860;4.286;2024-01-06T04:47:49;8.20;99.90
22738;DHT22;11536;50.860;4.286;2024-01-06T04:50:15;8.20;99.90
22738;DHT22;11536;50.860;4.286;2024-01-06T04:52:41;8.20;99.90
22738;DHT22;11536;50.860;4.286;2024-01-06T04:55:07;8.20;99.90
22738;DHT22;11536;50.860;4.286;2024-01-06T04:57:32;8.20;99.90
22738;DHT22;11536;50.860;4.286;2024-01-06T04:59:58;8.20;99.90
22738;DHT22;11536;50.860;4.286;2024-01-06T05:02:25;8.20;99.90
22738;DHT22;11536;50.860;4.286;2024-01-06T05:04:51;8.20;99.90
22738;DHT22;11536;50.860;4.286;2024-01-06T05:07:16;8.20;99.90
22738;DHT22;11536;50.860;4.286;2024-01-06T05:09:42;8.20;99.90
22738;DHT22;11536;50.860;4.286;2024-01-06T05:12:08;8.20;99.90
22738;DHT22;11536;50.860;4.286;2024-01-06T05:14:33;8.20;99.90
22738;DHT22;11536;50.860;4.286;2024-01-06T05:16:59;8.20;99.90
22738;DHT22;11536;50.860;4.286;2024-01-06T05:19:25;8.20;99.90
22738;DHT22;11536;50.860;4.286;2024-01-06T05:21:50;8.20;99.90
22738;DHT22;11536;50.860;4.286;2024-01-06T05:24:17;8.20;99.90
22738;DHT22;11536;50.860;4.286;2024-01-06T05:26:42;8.20;99.90
22738;DHT22;11536;50.860;4.286;2024-01-06T05:29:08;8.10;99.90
22738;DHT22;11536;50.860;4.286;2024-01-06T05:31:34;8.20;99.90
22738;DHT22;11536;50.860;4.286;2024-01-06T05:33:59;8.10;99.90
22738;DHT22;11536;50.860;4.286;2024-01-06T05:36:25;8.10;99.90
22738;DHT22;11536;50.860;4.286;2024-01-06T05:38:51;8.10;99.90
22738;DHT22;11536;50.860;4.286;2024-01-06T05:41:16;8.00;99.90
22738;DHT22;11536;50.860;4.286;2024-01-06T05:43:42;8.00;99.90
22738;DHT22;11536;50.860;4.286;2024-01-06T05:46:08;8.00;99.90
22738;DHT22;11536;50.860;4.286;2024-01-06T05:48:36;8.00;99.90
22738;DHT22;11536;50.860;4.286;2024-01-06T05:51:03;7.90;99.90
22738;DHT22;11536;50.860;4.286;2024-01-06T05:53:29;7.90;99.90
22738;DHT22;11536;50.860;4.286;2024-01-06T05:55:55;7.90;99.90
22738;DHT22;11536;50.860;4.286;2024-01-06T05:58:20;7.90;99.90
22738;DHT22;11536;50.860;4.286;2024-01-06T06:00:47;7.90;99.90
22738;DHT22;11536;50.860;4.286;2024-01-06T06:03:12;7.90;99.90
22738;DHT22;11536;50.860;4.286;2024-01-06T06:05:38;7.90;99.90
22738;DHT22;11536;50.860;4.286;2024-01-06T06:08:04;7.80;99.90
22738;DHT22;11536;50.860;4.286;2024-01-06T06:10:29;7.80;99.90
22738;DHT22;11536;50.860;4.286;2024-01-06T06:13:06;7.70;99.90
22738;DHT22;11536;50.860;4.286;2024-01-06T06:15:35;7.70;99.90
22738;DHT22;11536;50.860;4.286;2024-01-06T06:18:00;7.70;99.90
22738;DHT22;11536;50.860;4.286;2024-01-06T06:20:26;7.70;99.90
22738;DHT22;11536;50.860;4.286;2024-01-06T06:22:52;7.60;99.90
22738;DHT22;11536;50.860;4.286;2024-01-06T06:25:17;7.60;99.90
22738;DHT22;11536;50.860;4.286;2024-01-06T06:27:43;7.60;99.90
22738;DHT22;11536;50.860;4.286;2024-01-06T06:30:09;7.60;99.90
22738;DHT22;11536;50.860;4.286;2024-01-06T06:32:35;7.60;99.90
22738;DHT22;11536;50.860;4.286;2024-01-06T06:35:00;7.50;99.90
22738;DHT22;11536;50.860;4.286;2024-01-06T06:37:27;7.50;99.90
22738;DHT22;11536;50.860;4.286;2024-01-06T06:39:52;7.50;99.90
22738;DHT22;11536;50.860;4.286;2024-01-06T06:42:18;7.50;99.90
22738;DHT22;11536;50.860;4.286;2024-01-06T06:44:44;7.50;99.90
22738;DHT22;11536;50.860;4.286;2024-01-06T06:47:09;7.40;99.90
22738;DHT22;11536;50.860;4.286;2024-01-06T06:49:35;7.40;99.90
22738;DHT22;11536;50.860;4.286;2024-01-06T06:52:00;7.40;99.90
22738;DHT22;11536;50.860;4.286;2024-01-06T06:54:28;7.40;99.90
22738;DHT22;11536;50.860;4.286;2024-01-06T06:56:54;7.40;99.90
22738;DHT22;11536;50.860;4.286;2024-01-06T06:59:19;7.40;99.90
22738;DHT22;11536;50.860;4.286;2024-01-06T07:01:45;7.40;99.90
22738;DHT22;11536;50.860;4.286;2024-01-06T07:04:11;7.40;99.90
22738;DHT22;11536;50.860;4.286;2024-01-06T07:06:37;7.40;99.90
22738;DHT22;11536;50.860;4.286;2024-01-06T07:09:02;7.40;99.90
22738;DHT22;11536;50.860;4.286;2024-01-06T07:11:30;7.40;99.90
22738;DHT22;11536;50.860;4.286;2024-01-06T07:13:55;7.40;99.90
22738;DHT22;11536;50.860;4.286;2024-01-06T07:16:21;7.30;99.90
22738;DHT22;11536;50.860;4.286;2024-01-06T07:18:47;7.30;99.90
22738;DHT22;11536;50.860;4.286;2024-01-06T07:21:12;7.30;99.90
22738;DHT22;11536;50.860;4.286;2024-01-06T07:23:39;7.30;99.90
22738;DHT22;11536;50.860;4.286;2024-01-06T07:26:04;7.30;99.90
22738;DHT22;11536;50.860;4.286;2024-01-06T07:28:30;7.30;99.90
22738;DHT22;11536;50.860;4.286;2024-01-06T07:30:56;7.30;99.90
22738;DHT22;11536;50.860;4.286;2024-01-06T07:33:21;7.20;99.90
22738;DHT22;11536;50.860;4.286;2024-01-06T07:35:47;7.20;99.90
22738;DHT22;11536;50.860;4.286;2024-01-06T07:38:13;7.20;99.90
22738;DHT22;11536;50.860;4.286;2024-01-06T07:40:39;7.20;99.90
22738;DHT22;11536;50.860;4.286;2024-01-06T07:43:05;7.20;99.90
22738;DHT22;11536;50.860;4.286;2024-01-06T07:45:35;7.20;99.90
22738;DHT22;11536;50.860;4.286;2024-01-06T07:48:01;7.10;99.90
22738;DHT22;11536;50.860;4.286;2024-01-06T07:50:28;7.10;99.90
22738;DHT22;11536;50.860;4.286;2024-01-06T07:52:54;7.10;99.90
22738;DHT22;11536;50.860;4.286;2024-01-06T07:55:20;7.10;99.90
22738;DHT22;11536;50.860;4.286;2024-01-06T07:57:45;7.10;99.90
22738;DHT22;11536;50.860;4.286;2024-01-06T08:00:12;7.00;99.90
22738;DHT22;11536;50.860;4.286;2024-01-06T08:02:41;7.00;99.90
22738;DHT22;11536;50.860;4.286;2024-01-06T08:05:07;7.00;99.90
22738;DHT22;11536;50.860;4.286;2024-01-06T08:07:33;7.00;99.90
22738;DHT22;11536;50.860;4.286;2024-01-06T08:09:58;7.10;99.90
22738;DHT22;11536;50.860;4.286;2024-01-06T08:12:24;7.10;99.90
22738;DHT22;11536;50.860;4.286;2024-01-06T08:14:50;7.10;99.90
22738;DHT22;11536;50.860;4.286;2024-01-06T08:17:15;7.10;99.90
22738;DHT22;11536;50.860;4.286;2024-01-06T08:19:41;7.10;99.90
22738;DHT22;11536;50.860;4.286;2024-01-06T08:22:07;7.10;99.90
22738;DHT22;11536;50.860;4.286;2024-01-06T08:24:33;7.10;99.90
22738;DHT22;11536;50.860;4.286;2024-01-06T08:26:59;7.10;99.90
22738;DHT22;11536;50.860;4.286;2024-01-06T08:29:25;7.10;99.90
22738;DHT22;11536;50.860;4.286;2024-01-06T08:31:50;7.10;99.90
22738;DHT22;11536;50.860;4.286;2024-01-06T08:34:18;7.10;99.90
22738;DHT22;11536;50.860;4.286;2024-01-06T08:36:44;7.10;99.90
22738;DHT22;11536;50.860;4.286;2024-01-06T08:39:11;7.10;99.90
22738;DHT22;11536;50.860;4.286;2024-01-06T08:41:36;7.20;99.90
22738;DHT22;11536;50.860;4.286;2024-01-06T08:44:02;7.20;99.90
22738;DHT22;11536;50.860;4.286;2024-01-06T08:46:28;7.10;99.90
22738;DHT22;11536;50.860;4.286;2024-01-06T08:48:53;7.10;99.90
22738;DHT22;11536;50.860;4.286;2024-01-06T08:51:19;7.10;99.90
22738;DHT22;11536;50.860;4.286;2024-01-06T08:53:46;7.10;99.90
22738;DHT22;11536;50.860;4.286;2024-01-06T08:56:11;7.10;99.90
22738;DHT22;11536;50.860;4.286;2024-01-06T08:58:37;7.10;99.90
22738;DHT22;11536;50.860;4.286;2024-01-06T09:01:03;7.10;99.90
22738;DHT22;11536;50.860;4.286;2024-01-06T09:03:29;7.20;99.90
22738;DHT22;11536;50.860;4.286;2024-01-06T09:05:57;7.10;99.90
22738;DHT22;11536;50.860;4.286;2024-01-06T09:08:23;7.10;99.90
22738;DHT22;11536;50.860;4.286;2024-01-06T09:10:50;7.00;99.90
22738;DHT22;11536;50.860;4.286;2024-01-06T09:13:17;7.00;99.90
22738;DHT22;11536;50.860;4.286;2024-01-06T09:15:43;7.00;99.90
22738;DHT22;11536;50.860;4.286;2024-01-06T09:18:09;7.00;99.90
22738;DHT22;11536;50.860;4.286;2024-01-06T09:20:35;7.00;99.90
22738;DHT22;11536;50.860;4.286;2024-01-06T09:23:00;7.00;99.90
22738;DHT22;11536;50.860;4.286;2024-01-06T09:25:26;7.00;99.90
22738;DHT22;11536;50.860;4.286;2024-01-06T09:27:52;6.90;99.90
22738;DHT22;11536;50.860;4.286;2024-01-06T09:30:18;7.00;99.90
22738;DHT22;11536;50.860;4.286;2024-01-06T09:32:44;6.90;99.90
22738;DHT22;11536;50.860;4.286;2024-01-06T09:35:10;6.90;99.90
22738;DHT22;11536;50.860;4.286;2024-01-06T09:37:36;6.80;99.90
22738;DHT22;11536;50.860;4.286;2024-01-06T09:40:01;6.80;99.90
22738;DHT22;11536;50.860;4.286;2024-01-06T09:42:27;6.70;99.90
22738;DHT22;11536;50.860;4.286;2024-01-06T09:44:52;6.70;99.90
22738;DHT22;11536;50.860;4.286;2024-01-06T09:47:18;6.70;99.90
22738;DHT22;11536;50.860;4.286;2024-01-06T09:49:49;6.70;99.90
22738;DHT22;11536;50.860;4.286;2024-01-06T09:52:21;6.70;99.90
22738;DHT22;11536;50.860;4.286;2024-01-06T09:54:52;6.70;99.90
22738;DHT22;11536;50.860;4.286;2024-01-06T09:57:18;6.70;99.90
22738;DHT22;11536;50.860;4.286;2024-01-06T09:59:44;6.60;99.90
22738;DHT22;11536;50.860;4.286;2024-01-06T10:02:16;6.70;99.90
22738;DHT22;11536;50.860;4.286;2024-01-06T10:04:45;6.70;99.90
22738;DHT22;11536;50.860;4.286;2024-01-06T10:07:11;6.70;99.90
22738;DHT22;11536;50.860;4.286;2024-01-06T10:09:40;6.70;99.90
22738;DHT22;11536;50.860;4.286;2024-01-06T10:12:06;6.70;99.90
22738;DHT22;11536;50.860;4.286;2024-01-06T10:14:32;6.70;99.90
22738;DHT22;11536;50.860;4.286;2024-01-06T10:16:58;6.70;99.90
22738;DHT22;11536;50.860;4.286;2024-01-06T10:19:24;6.70;99.90
22738;DHT22;11536;50.860;4.286;2024-01-06T10:21:50;6.70;99.90
22738;DHT22;11536;50.860;4.286;2024-01-06T10:24:18;6.70;99.90
22738;DHT22;11536;50.860;4.286;2024-01-06T10:26:46;6.70;99.90
22738;DHT22;11536;50.860;4.286;2024-01-06T10:29:13;6.60;99.90
22738;DHT22;11536;50.860;4.286;2024-01-06T10:31:39;6.60;99.90
22738;DHT22;11536;50.860;4.286;2024-01-06T10:34:05;6.60;99.90
22738;DHT22;11536;50.860;4.286;2024-01-06T10:36:31;6.60;99.90
22738;DHT22;11536;50.860;4.286;2024-01-06T10:38:57;6.60;99.90
22738;DHT22;11536;50.860;4.286;2024-01-06T10:41:24;6.60;99.90
22738;DHT22;11536;50.860;4.286;2024-01-06T10:43:51;6.60;99.90
22738;DHT22;11536;50.860;4.286;2024-01-06T10:46:19;6.60;99.90
22738;DHT22;11536;50.860;4.286;2024-01-06T10:48:49;6.70;99.90
22738;DHT22;11536;50.860;4.286;2024-01-06T10:51:19;6.70;99.90
22738;DHT22;11536;50.860;4.286;2024-01-06T10:53:48;6.70;99.90
22738;DHT22;11536;50.860;4.286;2024-01-06T10:56:14;6.70;99.90
22738;DHT22;11536;50.860;4.286;2024-01-06T10:58:45;6.70;99.90
22738;DHT22;11536;50.860;4.286;2024-01-06T11:01:12;6.70;99.90
22738;DHT22;11536;50.860;4.286;2024-01-06T11:03:39;6.70;99.90
22738;DHT22;11536;50.860;4.286;2024-01-06T11:06:08;6.70;99.90
22738;DHT22;11536;50.860;4.286;2024-01-06T11:08:44;6.70;99.90
22738;DHT22;11536;50.860;4.286;2024-01-06T11:11:16;6.50;99.90
22738;DHT22;11536;50.860;4.286;2024-01-06T11:13:43;6.50;99.90
22738;DHT22;11536;50.860;4.286;2024-01-06T11:16:11;6.50;99.90
22738;DHT22;11536;50.860;4.286;2024-01-06T11:18:38;6.50;99.90
22738;DHT22;11536;50.860;4.286;2024-01-06T11:23:38;6.40;99.90
22738;DHT22;11536;50.860;4.286;2024-01-06T11:26:06;6.50;99.90
22738;DHT22;11536;50.860;4.286;2024-01-06T11:28:46;6.50;99.90
22738;DHT22;11536;50.860;4.286;2024-01-06T11:31:12;6.50;99.90
22738;DHT22;11536;50.860;4.286;2024-01-06T11:33:45;6.50;99.90
22738;DHT22;11536;50.860;4.286;2024-01-06T11:36:16;6.50;99.90
22738;DHT22;11536;50.860;4.286;2024-01-06T11:38:46;6.50;99.90
22738;DHT22;11536;50.860;4.286;2024-01-06T11:41:48;6.50;99.90
22738;DHT22;11536;50.860;4.286;2024-01-06T11:44:20;6.50;99.90
22738;DHT22;11536;50.860;4.286;2024-01-06T11:46:47;6.50;99.90
22738;DHT22;11536;50.860;4.286;2024-01-06T11:49:19;6.50;99.90
22738;DHT22;11536;50.860;4.286;2024-01-06T11:51:46;6.40;99.90
22738;DHT22;11536;50.860;4.286;2024-01-06T11:54:12;6.40;99.90
22738;DHT22;11536;50.860;4.286;2024-01-06T11:56:38;6.40;99.90
22738;DHT22;11536;50.860;4.286;2024-01-06T11:59:04;6.30;99.90
22738;DHT22;11536;50.860;4.286;2024-01-06T12:01:39;6.30;99.90
22738;DHT22;11536;50.860;4.286;2024-01-06T12:04:05;6.30;99.90
22738;DHT22;11536;50.860;4.286;2024-01-06T12:06:35;6.40;99.90
22738;DHT22;11536;50.860;4.286;2024-01-06T12:11:30;6.40;99.90
22738;DHT22;11536;50.860;4.286;2024-01-06T12:13:56;6.40;99.90
22738;DHT22;11536;50.860;4.286;2024-01-06T12:16:22;6.40;99.90
22738;DHT22;11536;50.860;4.286;2024-01-06T12:18:53;6.40;99.90
22738;DHT22;11536;50.860;4.286;2024-01-06T12:21:22;6.40;99.90
22738;DHT22;11536;50.860;4.286;2024-01-06T12:23:47;6.40;99.90
22738;DHT22;11536;50.860;4.286;2024-01-06T12:26:13;6.40;99.90
22738;DHT22;11536;50.860;4.286;2024-01-06T12:28:39;6.40;99.90
22738;DHT22;11536;50.860;4.286;2024-01-06T12:31:08;6.40;99.90
22738;DHT22;11536;50.860;4.286;2024-01-06T12:33:35;6.40;99.90
22738;DHT22;11536;50.860;4.286;2024-01-06T12:36:03;6.40;99.90
22738;DHT22;11536;50.860;4.286;2024-01-06T12:38:32;6.50;99.90
22738;DHT22;11536;50.860;4.286;2024-01-06T12:40:58;6.50;99.90
22738;DHT22;11536;50.860;4.286;2024-01-06T12:43:23;6.60;99.90
22738;DHT22;11536;50.860;4.286;2024-01-06T12:45:49;6.50;99.90
22738;DHT22;11536;50.860;4.286;2024-01-06T12:48:18;6.40;99.90
22738;DHT22;11536;50.860;4.286;2024-01-06T12:50:43;6.40;99.90
22738;DHT22;11536;50.860;4.286;2024-01-06T12:53:09;6.40;99.90
22738;DHT22;11536;50.860;4.286;2024-01-06T12:55:37;6.50;99.90
22738;DHT22;11536;50.860;4.286;2024-01-06T12:58:03;6.40;99.90
22738;DHT22;11536;50.860;4.286;2024-01-06T13:00:30;6.40;99.90
22738;DHT22;11536;50.860;4.286;2024-01-06T13:02:55;6.40;99.90
22738;DHT22;11536;50.860;4.286;2024-01-06T13:05:21;6.40;99.90
22738;DHT22;11536;50.860;4.286;2024-01-06T13:07:48;6.40;99.90
22738;DHT22;11536;50.860;4.286;2024-01-06T13:10:14;6.40;99.90
22738;DHT22;11536;50.860;4.286;2024-01-06T13:12:40;6.40;99.90
22738;DHT22;11536;50.860;4.286;2024-01-06T13:15:06;6.40;99.90
22738;DHT22;11536;50.860;4.286;2024-01-06T13:17:37;6.40;99.90
22738;DHT22;11536;50.860;4.286;2024-01-06T13:20:06;6.40;99.90
22738;DHT22;11536;50.860;4.286;2024-01-06T13:22:33;6.50;99.90
22738;DHT22;11536;50.860;4.286;2024-01-06T13:24:59;6.50;99.90
22738;DHT22;11536;50.860;4.286;2024-01-06T13:27:25;6.50;99.90
22738;DHT22;11536;50.860;4.286;2024-01-06T13:29:54;6.50;99.90
22738;DHT22;11536;50.860;4.286;2024-01-06T13:32:20;6.40;99.90
22738;DHT22;11536;50.860;4.286;2024-01-06T13:34:47;6.40;99.90
22738;DHT22;11536;50.860;4.286;2024-01-06T13:37:13;6.40;99.90
22738;DHT22;11536;50.860;4.286;2024-01-06T13:39:38;6.40;99.90
22738;DHT22;11536;50.860;4.286;2024-01-06T13:42:04;6.40;99.90
22738;DHT22;11536;50.860;4.286;2024-01-06T13:44:30;6.40;99.90
22738;DHT22;11536;50.860;4.286;2024-01-06T13:46:56;6.30;99.90
22738;DHT22;11536;50.860;4.286;2024-01-06T13:49:22;6.30;99.90
22738;DHT22;11536;50.860;4.286;2024-01-06T13:51:49;6.30;99.90
22738;DHT22;11536;50.860;4.286;2024-01-06T13:54:14;6.30;99.90
22738;DHT22;11536;50.860;4.286;2024-01-06T13:56:40;6.30;99.90
22738;DHT22;11536;50.860;4.286;2024-01-06T13:59:06;6.20;99.90
22738;DHT22;11536;50.860;4.286;2024-01-06T14:01:32;6.20;99.90
22738;DHT22;11536;50.860;4.286;2024-01-06T14:03:58;6.20;99.90
22738;DHT22;11536;50.860;4.286;2024-01-06T14:06:27;6.20;99.90
22738;DHT22;11536;50.860;4.286;2024-01-06T14:08:57;6.20;99.90
22738;DHT22;11536;50.860;4.286;2024-01-06T14:11:23;6.20;99.90
22738;DHT22;11536;50.860;4.286;2024-01-06T14:13:50;6.20;99.90
22738;DHT22;11536;50.860;4.286;2024-01-06T14:16:17;6.30;99.90
22738;DHT22;11536;50.860;4.286;2024-01-06T14:18:43;6.20;99.90
22738;DHT22;11536;50.860;4.286;2024-01-06T14:21:10;6.20;99.90
22738;DHT22;11536;50.860;4.286;2024-01-06T14:23:36;6.30;99.90
22738;DHT22;11536;50.860;4.286;2024-01-06T14:26:02;6.30;99.90
22738;DHT22;11536;50.860;4.286;2024-01-06T14:28:28;6.30;99.90
22738;DHT22;11536;50.860;4.286;2024-01-06T14:30:55;6.30;99.90
22738;DHT22;11536;50.860;4.286;2024-01-06T14:33:21;6.30;99.90
22738;DHT22;11536;50.860;4.286;2024-01-06T14:35:47;6.30;99.90
22738;DHT22;11536;50.860;4.286;2024-01-06T14:38:12;6.20;99.90
22738;DHT22;11536;50.860;4.286;2024-01-06T14:40:38;6.20;99.90
22738;DHT22;11536;50.860;4.286;2024-01-06T14:43:04;6.20;99.90
22738;DHT22;11536;50.860;4.286;2024-01-06T14:45:33;6.20;99.90
22738;DHT22;11536;50.860;4.286;2024-01-06T14:47:59;6.20;99.90
22738;DHT22;11536;50.860;4.286;2024-01-06T14:50:27;6.20;99.90
22738;DHT22;11536;50.860;4.286;2024-01-06T14:52:53;6.30;99.90
22738;DHT22;11536;50.860;4.286;2024-01-06T14:55:18;6.30;99.90
22738;DHT22;11536;50.860;4.286;2024-01-06T14:57:44;6.30;99.90
22738;DHT22;11536;50.860;4.286;2024-01-06T15:00:10;6.30;99.90
22738;DHT22;11536;50.860;4.286;2024-01-06T15:02:37;6.30;99.90
22738;DHT22;11536;50.860;4.286;2024-01-06T15:05:04;6.30;99.90
22738;DHT22;11536;50.860;4.286;2024-01-06T15:07:30;6.30;99.90
22738;DHT22;11536;50.860;4.286;2024-01-06T15:10:03;6.30;99.90
22738;DHT22;11536;50.860;4.286;2024-01-06T15:12:32;6.20;99.90
22738;DHT22;11536;50.860;4.286;2024-01-06T15:14:58;6.10;99.90
22738;DHT22;11536;50.860;4.286;2024-01-06T15:17:24;6.10;99.90
22738;DHT22;11536;50.860;4.286;2024-01-06T15:19:51;6.10;99.90
22738;DHT22;11536;50.860;4.286;2024-01-06T15:22:17;6.10;99.90
22738;DHT22;11536;50.860;4.286;2024-01-06T15:24:42;6.10;99.90
22738;DHT22;11536;50.860;4.286;2024-01-06T15:27:10;6.10;99.90
22738;DHT22;11536;50.860;4.286;2024-01-06T15:29:36;6.00;99.90
22738;DHT22;11536;50.860;4.286;2024-01-06T15:32:02;6.00;99.90
22738;DHT22;11536;50.860;4.286;2024-01-06T15:34:27;6.00;99.90
22738;DHT22;11536;50.860;4.286;2024-01-06T15:36:56;6.00;99.90
22738;DHT22;11536;50.860;4.286;2024-01-06T15:39:22;6.10;99.90
22738;DHT22;11536;50.860;4.286;2024-01-06T15:41:47;6.10;99.90
22738;DHT22;11536;50.860;4.286;2024-01-06T15:44:13;6.10;99.90